createdAt,value
2022-08-18T00:02:43.459Z,15.94
2022-08-18T00:07:55.486Z,15.91
2022-08-18T00:13:01.584Z,15.84
2022-08-18T00:18:06.336Z,15.73
2022-08-18T00:23:10.857Z,15.65
2022-08-18T00:28:16.577Z,15.64
2022-08-18T00:33:20.907Z,15.65
2022-08-18T00:38:25.764Z,15.69
2022-08-18T00:43:40.726Z,15.65
2022-08-18T00:48:48.565Z,15.64
2022-08-18T00:54:03.200Z,15.67
2022-08-18T00:59:15.209Z,15.69
2022-08-18T01:04:27.561Z,15.73
2022-08-18T01:09:31.949Z,15.78
2022-08-18T01:14:39.371Z,15.83
2022-08-18T01:20:01.361Z,15.86
2022-08-18T01:25:28.040Z,15.85
2022-08-18T01:30:45.402Z,15.88
2022-08-18T01:35:50.743Z,15.88
2022-08-18T01:41:17.333Z,15.80
2022-08-18T01:46:23.201Z,15.72
2022-08-18T01:51:39.496Z,15.72
2022-08-18T01:56:48.294Z,15.68
2022-08-18T02:01:55.611Z,15.66
2022-08-18T02:07:01.288Z,15.65
2022-08-18T02:12:10.748Z,15.57
2022-08-18T02:17:15.586Z,15.55
2022-08-18T02:22:22.283Z,15.58
2022-08-18T02:27:29.802Z,15.59
2022-08-18T02:32:35.166Z,15.67
2022-08-18T02:37:42.044Z,15.70
2022-08-18T02:42:49.842Z,15.72
2022-08-18T02:47:55.692Z,15.65
2022-08-18T02:53:00.130Z,15.53
2022-08-18T02:58:06.734Z,15.47
2022-08-18T03:03:11.226Z,15.43
2022-08-18T03:08:15.721Z,15.45
2022-08-18T03:13:21.598Z,15.55
2022-08-18T03:18:25.947Z,15.65
2022-08-18T03:23:30.552Z,15.68
2022-08-18T03:28:36.950Z,15.78
2022-08-18T03:33:42.208Z,15.85
2022-08-18T03:38:52.535Z,15.86
2022-08-18T03:44:03.015Z,15.83
2022-08-18T03:49:08.982Z,15.84
2022-08-18T03:54:15.808Z,15.82
2022-08-18T03:59:24.766Z,15.82
2022-08-18T04:04:30.204Z,15.90
2022-08-18T04:09:37.366Z,15.93
2022-08-18T04:14:46.565Z,16.01
2022-08-18T04:19:51.983Z,16.02
2022-08-18T04:24:57.988Z,16.05
2022-08-18T04:30:04.894Z,16.09
2022-08-18T04:35:14.033Z,16.16
2022-08-18T04:40:24.844Z,16.23
2022-08-18T04:45:31.646Z,16.21
2022-08-18T04:50:38.407Z,16.16
2022-08-18T04:55:49.768Z,16.12
2022-08-18T05:01:02.858Z,16.10
2022-08-18T05:06:08.384Z,16.21
2022-08-18T05:11:12.692Z,16.28
2022-08-18T05:16:27.205Z,16.29
2022-08-18T05:21:33.807Z,16.29
2022-08-18T05:26:41.899Z,16.37
2022-08-18T05:31:49.216Z,16.42
2022-08-18T05:37:12.096Z,16.57
2022-08-18T05:42:21.354Z,16.84
2022-08-18T05:47:30.886Z,16.98
2022-08-18T05:52:40.763Z,16.94
2022-08-18T05:57:53.791Z,16.99
2022-08-18T06:03:10.003Z,17.10
2022-08-18T06:08:18.183Z,17.38
2022-08-18T06:13:23.076Z,17.98
2022-08-18T06:18:44.055Z,18.33
2022-08-18T06:24:06.215Z,18.82
2022-08-18T06:29:32.473Z,19.13
2022-08-18T06:34:54.600Z,19.40
2022-08-18T06:39:59.324Z,19.98
2022-08-18T06:45:12.908Z,19.71
2022-08-18T06:50:27.840Z,19.55
2022-08-18T06:55:39.296Z,19.53
2022-08-18T07:00:57.181Z,19.27
2022-08-18T07:06:07.423Z,18.96
2022-08-18T07:11:21.396Z,18.95
2022-08-18T07:16:54.974Z,19.22
2022-08-18T07:22:08.462Z,19.39
2022-08-18T07:27:17.519Z,19.55
2022-08-18T07:32:26.867Z,19.58
2022-08-18T07:37:42.008Z,19.84
2022-08-18T07:43:01.813Z,19.68
2022-08-18T07:48:36.863Z,19.85
2022-08-18T07:53:56.832Z,20.63
2022-08-18T07:59:13.479Z,22.26
2022-08-18T08:04:37.997Z,23.21
2022-08-18T08:09:57.216Z,23.82
2022-08-18T08:15:18.347Z,23.58
2022-08-18T08:20:44.467Z,23.13
2022-08-18T08:26:18.957Z,22.36
2022-08-18T08:31:49.182Z,22.23
2022-08-18T08:37:03.137Z,22.39
2022-08-18T08:42:30.464Z,22.15
2022-08-18T08:47:46.351Z,22.04
2022-08-18T08:52:57.436Z,21.82
2022-08-18T08:58:20.927Z,21.91
2022-08-18T09:03:49.144Z,22.05
2022-08-18T09:09:28.420Z,22.39
2022-08-18T09:15:08.436Z,24.13
2022-08-18T09:20:37.408Z,27.57
2022-08-18T09:25:51.882Z,28.25
2022-08-18T09:31:19.999Z,30.13
2022-08-18T09:36:44.798Z,29.71
2022-08-18T09:41:59.591Z,28.42
2022-08-18T09:47:07.531Z,29.38
2022-08-18T09:52:50.568Z,32.01
2022-08-18T09:58:22.974Z,31.47
2022-08-18T10:03:32.443Z,30.98
2022-08-18T10:09:36.855Z,32.64
2022-08-18T10:15:32.915Z,31.16
2022-08-18T10:20:58.037Z,30.08
2022-08-18T10:26:05.125Z,29.85
2022-08-18T10:31:16.475Z,29.21
2022-08-18T10:36:46.825Z,28.87
2022-08-18T10:42:05.611Z,28.06
2022-08-18T10:47:23.353Z,27.68
2022-08-18T10:53:39.391Z,27.52
2022-08-18T10:58:53.422Z,27.89
2022-08-18T11:04:14.425Z,27.89
2022-08-18T11:09:35.649Z,27.68
2022-08-18T11:15:22.304Z,27.13
2022-08-18T11:20:33.260Z,27.73
2022-08-18T11:25:42.156Z,27.93
2022-08-18T11:30:53.704Z,28.12
2022-08-18T11:36:01.696Z,27.67
2022-08-18T11:41:23.321Z,28.10
2022-08-18T11:46:32.544Z,28.12
2022-08-18T11:52:03.498Z,27.97
2022-08-18T11:57:59.249Z,26.92
2022-08-18T12:03:32.642Z,26.30
2022-08-18T12:08:58.261Z,26.15
2022-08-18T12:14:31.819Z,26.17
2022-08-18T12:19:40.107Z,26.42
2022-08-18T12:24:46.100Z,26.98
2022-08-18T12:29:58.452Z,27.64
2022-08-18T12:35:09.205Z,27.89
2022-08-18T12:40:15.192Z,28.19
2022-08-18T12:45:21.467Z,28.78
2022-08-18T12:50:30.912Z,29.61
2022-08-18T12:55:44.179Z,30.48
2022-08-18T13:00:51.874Z,31.07
2022-08-18T13:05:56.835Z,30.47
2022-08-18T13:11:15.101Z,30.10
2022-08-18T13:16:53.409Z,30.48
2022-08-18T13:21:57.164Z,31.52
2022-08-18T13:27:04.074Z,32.79
2022-08-18T13:32:26.317Z,32.63
2022-08-18T13:37:33.302Z,33.30
2022-08-18T13:42:53.022Z,35.03
2022-08-18T13:48:02.290Z,35.14
2022-08-18T13:53:18.879Z,34.71
2022-08-18T13:58:24.171Z,33.42
2022-08-18T14:03:46.680Z,32.65
2022-08-18T14:08:57.096Z,31.13
2022-08-18T14:14:06.439Z,30.46
2022-08-18T14:19:30.151Z,29.86
2022-08-18T14:24:54.531Z,29.66
2022-08-18T14:30:07.790Z,29.36
2022-08-18T14:36:04.362Z,28.99
2022-08-18T14:40:48.128Z,29.06
2022-08-18T14:45:53.860Z,28.50
2022-08-18T14:51:04.779Z,28.54
2022-08-18T14:56:17.774Z,28.15
2022-08-18T15:01:23.243Z,27.21
2022-08-18T15:06:55.891Z,26.70
2022-08-18T15:12:02.449Z,26.36
2022-08-18T15:17:13.290Z,25.76
2022-08-18T15:22:41.592Z,25.20
2022-08-18T15:27:57.484Z,24.80
2022-08-18T15:33:05.794Z,24.54
2022-08-18T15:38:24.372Z,24.26
2022-08-18T15:43:46.100Z,23.86
2022-08-18T15:48:54.127Z,23.82
2022-08-18T15:54:03.383Z,23.75
2022-08-18T15:59:19.650Z,23.66
2022-08-18T16:04:27.209Z,23.48
2022-08-18T16:09:33.726Z,23.33
2022-08-18T16:14:41.337Z,23.35
2022-08-18T16:19:46.554Z,23.44
2022-08-18T16:24:56.073Z,23.56
2022-08-18T16:30:17.297Z,23.66
2022-08-18T16:35:23.892Z,23.61
2022-08-18T16:40:33.489Z,23.52
2022-08-18T16:45:40.471Z,23.48
2022-08-18T16:50:46.525Z,23.36
2022-08-18T16:55:52.184Z,23.24
2022-08-18T17:01:18.801Z,23.10
2022-08-18T17:06:28.668Z,22.91
2022-08-18T17:11:34.487Z,22.85
2022-08-18T17:16:55.441Z,22.77
2022-08-18T17:22:00.455Z,22.70
2022-08-18T17:27:26.575Z,22.66
2022-08-18T17:32:42.129Z,22.47
2022-08-18T17:37:53.004Z,22.31
2022-08-18T17:43:00.189Z,22.28
2022-08-18T17:48:12.451Z,22.14
2022-08-18T17:53:18.316Z,22.11
2022-08-18T17:58:39.281Z,22.01
2022-08-18T18:03:45.706Z,21.94
2022-08-18T18:08:58.101Z,21.79
2022-08-18T18:14:27.009Z,21.75
2022-08-18T18:19:33.335Z,21.62
2022-08-18T18:24:40.163Z,21.50
2022-08-18T18:29:56.345Z,21.37
2022-08-18T18:35:23.724Z,21.21
2022-08-18T18:40:37.011Z,21.03
2022-08-18T18:45:43.905Z,20.99
2022-08-18T18:51:10.389Z,20.98
2022-08-18T18:56:25.768Z,20.90
2022-08-18T19:01:45.169Z,20.90
2022-08-18T19:07:00.149Z,20.89
2022-08-18T19:12:17.296Z,20.84
2022-08-18T19:17:33.194Z,20.70
2022-08-18T19:22:47.561Z,20.58
2022-08-18T19:28:05.040Z,20.59
2022-08-18T19:33:25.939Z,20.58
2022-08-18T19:38:42.162Z,20.53
2022-08-18T19:43:57.356Z,20.35
2022-08-18T19:49:18.557Z,20.08
2022-08-18T19:54:54.979Z,19.70
2022-08-18T20:00:27.709Z,19.45
2022-08-18T20:05:52.145Z,19.39
2022-08-18T20:11:22.020Z,19.34
2022-08-18T20:17:19.740Z,19.29
2022-08-18T20:30:49.088Z,19.21
2022-08-18T20:36:44.209Z,19.18
2022-08-18T20:41:52.077Z,19.13
2022-08-18T20:47:15.025Z,19.12
2022-08-18T20:53:41.061Z,19.15
2022-08-18T21:00:28.410Z,19.16
2022-08-18T21:14:07.742Z,19.09
2022-08-18T21:19:27.938Z,18.97
2022-08-18T21:24:37.116Z,18.86
2022-08-18T21:29:49.827Z,18.81
2022-08-18T21:34:57.299Z,18.82
2022-08-18T21:40:12.720Z,18.87
2022-08-18T21:45:25.229Z,18.80
2022-08-18T21:50:32.193Z,18.76
2022-08-18T21:55:42.578Z,18.73
2022-08-18T22:01:11.834Z,18.54
2022-08-18T22:06:36.228Z,18.19
2022-08-18T22:12:01.279Z,17.87
2022-08-18T22:17:32.318Z,17.73
2022-08-18T22:22:54.155Z,17.68
2022-08-18T22:28:00.775Z,17.65
2022-08-18T22:33:06.474Z,17.74
2022-08-18T22:38:15.251Z,17.82
2022-08-18T22:43:19.696Z,17.82
2022-08-18T22:48:25.842Z,17.66
2022-08-18T22:53:31.250Z,17.69
2022-08-18T22:58:36.155Z,17.68
2022-08-18T23:03:44.987Z,17.60
2022-08-18T23:08:51.765Z,17.58
2022-08-18T23:14:00.691Z,17.61
2022-08-18T23:19:06.476Z,17.71
2022-08-18T23:24:15.349Z,17.70
2022-08-18T23:29:21.978Z,17.76
2022-08-18T23:34:27.672Z,17.79
2022-08-18T23:39:34.900Z,17.82
2022-08-18T23:44:39.246Z,17.74
2022-08-18T23:49:44.999Z,17.70
2022-08-18T23:54:49.304Z,17.71
2022-08-18T23:59:54.570Z,17.62
